createdAt,value
2022-12-14T00:01:25.534Z,8.23
2022-12-14T00:03:53.107Z,8.20
2022-12-14T00:06:27.788Z,8.80
2022-12-14T00:08:57.438Z,8.53
2022-12-14T00:11:24.793Z,9.75
2022-12-14T00:13:54.352Z,10.43
2022-12-14T00:16:22.195Z,9.57
2022-12-14T00:18:54.104Z,9.68
2022-12-14T00:21:21.777Z,10.18
2022-12-14T00:23:50.372Z,10.30
2022-12-14T00:26:25.069Z,9.85
2022-12-14T00:28:54.377Z,9.85
2022-12-14T00:31:22.020Z,10.30
2022-12-14T00:33:49.290Z,9.02
2022-12-14T00:36:16.257Z,9.93
2022-12-14T00:38:43.437Z,9.95
2022-12-14T00:41:11.373Z,10.05
2022-12-14T00:43:38.647Z,9.45
2022-12-14T00:46:06.215Z,10.82
2022-12-14T00:48:33.855Z,10.50
2022-12-14T00:51:00.903Z,11.77
2022-12-14T00:53:28.568Z,11.18
2022-12-14T00:55:55.542Z,11.80
2022-12-14T00:58:25.358Z,11.20
2022-12-14T01:01:04.643Z,12.20
2022-12-14T01:03:32.520Z,11.13
2022-12-14T01:06:00.175Z,12.10
2022-12-14T01:08:35.534Z,12.45
2022-12-14T01:11:09.807Z,11.23
2022-12-14T01:13:38.749Z,10.77
2022-12-14T01:16:08.341Z,10.73
2022-12-14T01:18:36.803Z,10.85
2022-12-14T01:21:22.686Z,11.88
2022-12-14T01:26:20.664Z,10.68
2022-12-14T01:28:52.891Z,11.40
2022-12-14T01:31:23.822Z,10.40
2022-12-14T01:33:51.141Z,12.43
2022-12-14T01:36:24.579Z,10.85
2022-12-14T01:38:58.550Z,10.85
2022-12-14T01:41:38.892Z,9.85
2022-12-14T01:44:09.523Z,10.52
2022-12-14T01:46:43.919Z,11.80
2022-12-14T01:49:19.737Z,11.45
2022-12-14T01:52:01.432Z,12.38
2022-12-14T01:54:35.461Z,10.45
2022-12-14T01:57:02.881Z,10.40
2022-12-14T01:59:45.987Z,11.30
2022-12-14T02:02:15.405Z,9.15
2022-12-14T02:04:53.946Z,9.98
2022-12-14T02:07:25.144Z,10.68
2022-12-14T02:10:01.309Z,9.05
2022-12-14T02:12:34.450Z,8.75
2022-12-14T02:15:03.873Z,8.63
2022-12-14T02:17:34.083Z,8.27
2022-12-14T02:20:04.623Z,8.02
2022-12-14T02:22:53.000Z,8.30
2022-12-14T02:25:26.404Z,7.53
2022-12-14T02:28:09.254Z,7.68
2022-12-14T02:30:41.129Z,7.97
2022-12-14T02:33:34.851Z,7.72
2022-12-14T02:36:07.964Z,7.47
2022-12-14T02:38:40.419Z,8.02
2022-12-14T02:41:38.676Z,8.70
2022-12-14T02:44:30.638Z,7.65
2022-12-14T02:47:06.662Z,8.93
2022-12-14T02:49:49.329Z,8.00
2022-12-14T02:52:32.009Z,8.30
2022-12-14T02:55:16.988Z,8.15
2022-12-14T02:58:16.367Z,8.90
2022-12-14T03:00:44.159Z,8.85
2022-12-14T03:03:11.443Z,8.65
2022-12-14T03:08:47.779Z,8.85
2022-12-14T03:11:21.129Z,9.32
2022-12-14T03:13:59.291Z,8.93
2022-12-14T03:16:50.749Z,10.32
2022-12-14T03:19:31.487Z,13.32
2022-12-14T03:22:06.513Z,12.15
2022-12-14T03:24:41.555Z,11.30
2022-12-14T03:27:16.797Z,10.93
2022-12-14T03:30:43.763Z,9.95
2022-12-14T03:33:13.991Z,10.07
2022-12-14T03:36:00.508Z,9.02
2022-12-14T03:38:42.873Z,10.75
2022-12-14T03:41:29.675Z,10.30
2022-12-14T03:44:25.707Z,10.02
2022-12-14T03:47:04.744Z,9.40
2022-12-14T03:49:45.644Z,9.82
2022-12-14T03:52:22.422Z,9.55
2022-12-14T03:55:19.394Z,8.98
2022-12-14T03:57:57.977Z,9.20
2022-12-14T04:00:28.838Z,8.75
2022-12-14T04:03:27.400Z,9.60
2022-12-14T04:06:05.055Z,10.02
2022-12-14T04:08:47.028Z,10.70
2022-12-14T04:11:35.503Z,10.38
2022-12-14T04:14:32.477Z,10.63
2022-12-14T04:17:22.538Z,10.35
2022-12-14T04:19:57.398Z,10.52
2022-12-14T04:22:29.362Z,9.60
2022-12-14T04:25:21.640Z,9.48
2022-12-14T04:28:34.983Z,8.25
2022-12-14T04:31:07.406Z,8.30
2022-12-14T04:33:48.398Z,8.65
2022-12-14T04:36:32.186Z,7.90
2022-12-14T04:39:03.820Z,7.35
2022-12-14T04:41:36.747Z,7.90
2022-12-14T04:44:15.889Z,5.93
2022-12-14T04:46:44.332Z,5.60
2022-12-14T04:49:35.105Z,5.45
2022-12-14T04:52:27.494Z,6.50
2022-12-14T04:55:05.035Z,6.35
2022-12-14T04:57:36.724Z,6.25
2022-12-14T05:00:05.681Z,5.72
2022-12-14T05:02:51.456Z,5.47
2022-12-14T05:08:39.259Z,5.60
2022-12-14T05:14:22.096Z,6.07
2022-12-14T05:16:50.284Z,6.82
2022-12-14T05:19:17.132Z,6.65
2022-12-14T05:21:49.699Z,7.18
2022-12-14T05:24:17.165Z,6.78
2022-12-14T05:26:44.382Z,8.50
2022-12-14T05:29:11.282Z,7.75
2022-12-14T05:31:38.088Z,9.00
2022-12-14T05:34:04.754Z,9.13
2022-12-14T05:36:31.262Z,9.23
2022-12-14T05:38:57.692Z,8.77
2022-12-14T05:41:24.259Z,9.43
2022-12-14T05:43:50.866Z,8.55
2022-12-14T05:46:18.752Z,8.63
2022-12-14T05:48:49.218Z,8.68
2022-12-14T05:51:16.451Z,9.00
2022-12-14T05:53:43.151Z,8.60
2022-12-14T05:56:10.434Z,8.52
2022-12-14T05:58:38.293Z,7.20
2022-12-14T06:01:07.035Z,7.43
2022-12-14T06:03:33.877Z,9.65
2022-12-14T06:06:05.424Z,9.95
2022-12-14T06:08:40.419Z,10.38
2022-12-14T06:11:13.272Z,14.77
2022-12-14T06:13:40.924Z,22.40
2022-12-14T06:16:28.353Z,23.77
2022-12-14T06:18:57.832Z,28.38
2022-12-14T06:21:27.734Z,34.42
2022-12-14T06:24:05.409Z,23.95
2022-12-14T06:26:41.898Z,15.98
2022-12-14T06:29:13.796Z,12.98
2022-12-14T06:31:40.229Z,11.07
2022-12-14T06:34:06.720Z,8.55
2022-12-14T06:36:38.673Z,7.82
2022-12-14T06:39:16.985Z,7.57
2022-12-14T06:41:43.887Z,6.30
2022-12-14T06:44:14.523Z,5.78
2022-12-14T06:46:42.827Z,6.20
2022-12-14T06:49:13.956Z,9.52
2022-12-14T06:51:41.127Z,8.27
2022-12-14T06:54:09.427Z,7.88
2022-12-14T06:56:37.000Z,9.63
2022-12-14T06:59:05.288Z,8.80
2022-12-14T07:01:31.940Z,9.00
2022-12-14T07:03:59.486Z,9.63
2022-12-14T07:06:28.363Z,8.35
2022-12-14T07:08:56.628Z,9.40
2022-12-14T07:11:23.568Z,10.18
2022-12-14T07:13:50.084Z,9.30
2022-12-14T07:16:19.104Z,9.88
2022-12-14T07:18:45.614Z,9.88
2022-12-14T07:21:14.413Z,9.23
2022-12-14T07:23:42.690Z,10.07
2022-12-14T07:26:14.759Z,10.25
2022-12-14T07:28:42.606Z,11.20
2022-12-14T07:31:27.847Z,11.05
2022-12-14T07:33:56.238Z,10.45
2022-12-14T07:36:24.381Z,11.40
2022-12-14T07:38:51.821Z,10.15
2022-12-14T07:41:23.082Z,9.73
2022-12-14T07:43:51.517Z,10.48
2022-12-14T07:46:21.386Z,11.02
2022-12-14T07:48:58.936Z,9.88
2022-12-14T07:51:28.660Z,10.50
2022-12-14T07:53:55.636Z,9.77
2022-12-14T07:56:36.038Z,9.25
2022-12-14T07:59:05.025Z,10.10
2022-12-14T08:01:33.905Z,9.55
2022-12-14T08:04:06.093Z,9.88
2022-12-14T08:06:33.187Z,9.00
2022-12-14T08:09:00.828Z,10.25
2022-12-14T08:11:27.867Z,9.27
2022-12-14T08:13:56.362Z,9.73
2022-12-14T08:16:23.638Z,9.90
2022-12-14T08:18:52.306Z,9.27
2022-12-14T08:21:25.913Z,9.57
2022-12-14T08:24:02.023Z,9.45
2022-12-14T08:26:34.930Z,9.02
2022-12-14T08:29:02.193Z,8.98
2022-12-14T08:31:28.925Z,9.02
2022-12-14T08:33:55.714Z,10.80
2022-12-14T08:36:28.046Z,10.30
2022-12-14T08:38:56.530Z,9.27
2022-12-14T08:41:23.951Z,8.77
2022-12-14T08:43:51.638Z,8.85
2022-12-14T08:46:18.854Z,9.32
2022-12-14T08:48:45.437Z,8.48
2022-12-14T08:51:11.826Z,8.32
2022-12-14T08:53:38.879Z,8.70
2022-12-14T08:56:12.589Z,9.30
2022-12-14T08:58:40.770Z,8.68
2022-12-14T09:01:32.301Z,9.88
2022-12-14T09:04:16.893Z,9.50
2022-12-14T09:06:43.239Z,9.05
2022-12-14T09:09:16.506Z,9.40
2022-12-14T09:11:44.644Z,9.00
2022-12-14T09:14:11.028Z,9.57
2022-12-14T09:16:37.534Z,8.65
2022-12-14T09:19:03.977Z,9.07
2022-12-14T09:21:31.510Z,9.40
2022-12-14T09:23:59.859Z,9.20
2022-12-14T09:26:27.055Z,10.30
2022-12-14T09:28:55.772Z,9.40
2022-12-14T09:31:24.297Z,9.52
2022-12-14T09:33:51.342Z,10.68
2022-12-14T09:36:20.498Z,11.02
2022-12-14T09:38:51.497Z,11.05
2022-12-14T09:41:46.609Z,10.38
2022-12-14T09:44:43.392Z,9.25
2022-12-14T09:47:36.242Z,10.23
2022-12-14T09:50:11.210Z,9.63
2022-12-14T09:52:45.512Z,10.02
2022-12-14T09:55:36.066Z,10.40
2022-12-14T09:58:20.415Z,10.43
2022-12-14T10:01:02.489Z,11.15
2022-12-14T10:03:53.396Z,10.55
2022-12-14T10:06:25.686Z,10.82
2022-12-14T10:09:12.041Z,9.55
2022-12-14T10:11:52.920Z,9.18
2022-12-14T10:14:44.540Z,7.65
2022-12-14T10:17:34.898Z,8.50
2022-12-14T10:20:23.836Z,6.93
2022-12-14T10:22:52.621Z,6.05
2022-12-14T10:25:24.241Z,6.10
2022-12-14T10:28:10.916Z,4.85
2022-12-14T10:30:37.815Z,4.90
2022-12-14T10:33:26.526Z,5.90
2022-12-14T10:35:55.325Z,4.88
2022-12-14T10:38:31.408Z,5.28
2022-12-14T10:41:21.786Z,5.40
2022-12-14T10:43:59.533Z,5.20
2022-12-14T10:46:45.318Z,5.13
2022-12-14T10:49:23.957Z,5.40
2022-12-14T10:51:58.632Z,5.88
2022-12-14T10:54:38.957Z,6.20
2022-12-14T10:57:05.727Z,5.72
2022-12-14T10:59:40.761Z,5.70
2022-12-14T11:02:27.883Z,4.85
2022-12-14T11:05:00.461Z,5.28
2022-12-14T11:07:33.146Z,5.00
2022-12-14T11:10:23.628Z,5.35
2022-12-14T11:13:06.906Z,5.55
2022-12-14T11:15:40.183Z,6.22
2022-12-14T11:18:15.797Z,5.90
2022-12-14T11:21:04.388Z,5.88
2022-12-14T11:23:37.771Z,6.70
2022-12-14T11:26:08.921Z,6.32
2022-12-14T11:28:37.978Z,6.60
2022-12-14T11:31:28.769Z,6.72
2022-12-14T11:33:57.991Z,7.45
2022-12-14T11:36:32.946Z,6.93
2022-12-14T11:39:02.397Z,6.18
2022-12-14T11:41:40.421Z,6.07
2022-12-14T11:44:15.818Z,6.40
2022-12-14T11:47:11.381Z,6.32
2022-12-14T11:49:37.624Z,6.60
2022-12-14T11:52:13.051Z,6.70
2022-12-14T11:54:42.309Z,8.55
2022-12-14T11:57:38.641Z,7.00
2022-12-14T12:00:21.586Z,7.40
2022-12-14T12:02:54.347Z,6.50
2022-12-14T12:05:23.468Z,6.53
2022-12-14T12:07:49.721Z,6.18
2022-12-14T12:10:37.231Z,6.50
2022-12-14T12:13:18.532Z,6.55
2022-12-14T12:15:55.396Z,6.70
2022-12-14T12:18:40.335Z,6.88
2022-12-14T12:21:32.038Z,6.05
2022-12-14T12:24:22.180Z,6.47
2022-12-14T12:27:11.693Z,6.28
2022-12-14T12:29:52.397Z,6.15
2022-12-14T12:32:23.445Z,8.52
2022-12-14T12:34:56.760Z,7.70
2022-12-14T12:37:31.347Z,7.82
2022-12-14T12:40:03.420Z,7.38
2022-12-14T12:42:43.653Z,6.88
2022-12-14T12:45:32.449Z,7.15
2022-12-14T12:48:18.576Z,6.50
2022-12-14T12:53:21.307Z,6.13
2022-12-14T12:55:52.099Z,6.30
2022-12-14T12:58:31.696Z,6.88
2022-12-14T13:01:02.347Z,6.45
2022-12-14T13:03:45.689Z,7.20
2022-12-14T13:06:30.486Z,9.68
2022-12-14T13:09:17.484Z,7.18
2022-12-14T13:11:44.051Z,6.50
2022-12-14T13:14:31.741Z,6.82
2022-12-14T13:17:00.879Z,6.85
2022-12-14T13:19:52.666Z,6.47
2022-12-14T13:22:30.500Z,15.80
2022-12-14T13:25:02.943Z,19.33
2022-12-14T13:27:40.512Z,10.38
2022-12-14T13:30:20.881Z,9.13
2022-12-14T13:32:47.125Z,8.40
2022-12-14T13:35:32.384Z,7.28
2022-12-14T13:38:21.813Z,9.85
2022-12-14T13:41:08.197Z,9.93
2022-12-14T13:44:02.325Z,21.25
2022-12-14T13:46:30.218Z,19.13
2022-12-14T13:49:04.726Z,16.98
2022-12-14T13:51:45.987Z,11.40
2022-12-14T13:54:27.580Z,6.72
2022-12-14T13:57:13.166Z,16.83
2022-12-14T13:59:45.354Z,10.73
2022-12-14T14:02:30.637Z,9.32
2022-12-14T14:05:15.451Z,10.35
2022-12-14T14:07:50.531Z,8.98
2022-12-14T14:10:34.970Z,7.82
2022-12-14T14:13:27.008Z,7.63
2022-12-14T14:16:27.465Z,7.28
2022-12-14T14:22:25.231Z,6.40
2022-12-14T14:25:02.533Z,6.43
2022-12-14T14:27:36.415Z,6.82
2022-12-14T14:30:22.831Z,5.50
2022-12-14T14:32:49.292Z,6.60
2022-12-14T14:35:30.183Z,7.32
2022-12-14T14:37:59.992Z,5.90
2022-12-14T14:41:06.384Z,6.47
2022-12-14T14:43:38.043Z,7.20
2022-12-14T14:46:07.723Z,7.63
2022-12-14T14:48:42.096Z,11.52
2022-12-14T14:51:20.518Z,10.27
2022-12-14T14:53:50.527Z,10.13
2022-12-14T14:56:29.634Z,7.88
2022-12-14T14:59:22.818Z,8.80
2022-12-14T15:02:01.366Z,6.75
2022-12-14T15:04:37.461Z,6.78
2022-12-14T15:07:08.338Z,18.50
2022-12-14T15:09:44.274Z,40.22
2022-12-14T15:12:32.852Z,15.05
2022-12-14T15:15:17.029Z,24.45
2022-12-14T15:17:43.660Z,18.13
2022-12-14T15:20:27.254Z,17.45
2022-12-14T15:22:58.299Z,22.98
2022-12-14T15:25:29.508Z,20.17
2022-12-14T15:28:05.335Z,16.48
2022-12-14T15:30:32.232Z,13.27
2022-12-14T15:33:01.281Z,10.48
2022-12-14T15:35:31.711Z,8.82
2022-12-14T15:38:02.532Z,10.07
2022-12-14T15:40:30.968Z,9.85
2022-12-14T15:43:00.784Z,8.90
2022-12-14T15:45:28.701Z,8.82
2022-12-14T15:47:55.038Z,9.48
2022-12-14T15:50:28.176Z,8.50
2022-12-14T15:52:58.941Z,8.02
2022-12-14T15:56:00.247Z,7.80
2022-12-14T15:58:34.058Z,8.15
2022-12-14T16:01:23.439Z,8.10
2022-12-14T16:03:54.678Z,7.70
2022-12-14T16:06:23.969Z,7.30
2022-12-14T16:09:03.623Z,7.20
2022-12-14T16:11:38.861Z,7.57
2022-12-14T16:14:20.126Z,10.73
2022-12-14T16:16:47.553Z,8.48
2022-12-14T16:19:28.309Z,8.93
2022-12-14T16:22:20.679Z,7.85
2022-12-14T16:24:58.895Z,9.07
2022-12-14T16:27:27.800Z,8.00
2022-12-14T16:30:19.681Z,9.77
2022-12-14T16:32:50.062Z,9.68
2022-12-14T16:35:23.399Z,9.60
2022-12-14T16:37:53.440Z,8.15
2022-12-14T16:40:32.015Z,8.85
2022-12-14T16:42:58.630Z,8.27
2022-12-14T16:46:00.319Z,8.30
2022-12-14T16:48:28.686Z,8.77
2022-12-14T16:51:44.382Z,7.25
2022-12-14T16:54:33.159Z,6.78
2022-12-14T16:57:01.231Z,7.50
2022-12-14T16:59:40.789Z,7.05
2022-12-14T17:02:26.614Z,7.15
2022-12-14T17:04:53.792Z,7.65
2022-12-14T17:07:24.669Z,8.85
2022-12-14T17:09:51.067Z,10.50
2022-12-14T17:12:18.380Z,9.82
2022-12-14T17:14:49.804Z,9.52
2022-12-14T17:17:21.936Z,9.45
2022-12-14T17:19:48.988Z,9.75
2022-12-14T17:22:24.577Z,9.45
2022-12-14T17:24:51.101Z,9.85
2022-12-14T17:27:20.840Z,10.13
2022-12-14T17:29:47.156Z,10.35
2022-12-14T17:32:15.465Z,10.95
2022-12-14T17:34:42.563Z,9.93
2022-12-14T17:37:18.492Z,9.80
2022-12-14T17:39:46.587Z,9.23
2022-12-14T17:42:15.424Z,9.55
2022-12-14T17:44:43.962Z,8.88
2022-12-14T17:47:14.128Z,9.18
2022-12-14T17:49:42.146Z,8.65
2022-12-14T17:52:21.101Z,9.38
2022-12-14T17:54:47.684Z,8.95
2022-12-14T17:57:20.196Z,8.48
2022-12-14T17:59:47.748Z,8.60
2022-12-14T18:02:34.880Z,7.82
2022-12-14T18:05:01.535Z,8.02
2022-12-14T18:07:27.921Z,8.15
2022-12-14T18:09:54.396Z,8.23
2022-12-14T18:12:23.905Z,8.43
2022-12-14T18:14:50.992Z,7.88
2022-12-14T18:17:18.610Z,8.88
2022-12-14T18:19:44.993Z,9.18
2022-12-14T18:22:14.668Z,11.73
2022-12-14T18:24:41.070Z,10.65
2022-12-14T18:27:07.497Z,9.70
2022-12-14T18:29:33.978Z,10.02
2022-12-14T18:32:00.470Z,11.00
2022-12-14T18:34:26.903Z,11.05
2022-12-14T18:36:53.591Z,11.23
2022-12-14T18:39:19.940Z,11.75
2022-12-14T18:41:46.340Z,11.48
2022-12-14T18:44:12.985Z,12.40
2022-12-14T18:46:39.625Z,14.88
2022-12-14T18:49:06.070Z,15.98
2022-12-14T18:51:32.502Z,18.48
2022-12-14T18:54:00.182Z,16.15
2022-12-14T18:56:28.002Z,14.63
2022-12-14T18:58:54.674Z,14.52
2022-12-14T19:01:23.787Z,15.48
2022-12-14T19:03:51.196Z,14.23
2022-12-14T19:06:43.707Z,15.15
2022-12-14T19:09:07.122Z,14.45
2022-12-14T19:11:38.688Z,13.90
2022-12-14T19:14:05.095Z,15.23
2022-12-14T19:16:31.674Z,15.95
2022-12-14T19:18:58.386Z,15.43
2022-12-14T19:21:29.297Z,17.33
2022-12-14T19:23:56.011Z,17.70
2022-12-14T19:26:22.643Z,17.88
2022-12-14T19:28:48.991Z,16.42
2022-12-14T19:31:15.407Z,16.60
2022-12-14T19:33:41.792Z,16.52
2022-12-14T19:36:09.190Z,17.33
2022-12-14T19:38:36.069Z,17.70
2022-12-14T19:41:06.458Z,17.08
2022-12-14T19:43:33.554Z,17.98
2022-12-14T19:46:00.230Z,20.60
2022-12-14T19:48:26.625Z,20.17
2022-12-14T19:50:53.128Z,19.85
2022-12-14T19:53:27.990Z,20.10
2022-12-14T19:55:54.610Z,21.33
2022-12-14T19:58:25.190Z,20.98
2022-12-14T20:00:51.723Z,22.15
2022-12-14T20:03:18.582Z,22.15
2022-12-14T20:05:51.503Z,24.27
2022-12-14T20:08:17.898Z,23.80
2022-12-14T20:10:44.391Z,22.20
2022-12-14T20:13:10.701Z,22.80
2022-12-14T20:15:37.067Z,22.05
2022-12-14T20:18:04.670Z,22.70
2022-12-14T20:20:32.002Z,21.77
2022-12-14T20:22:58.377Z,23.88
2022-12-14T20:25:24.856Z,22.75
2022-12-14T20:27:52.119Z,22.20
2022-12-14T20:30:18.604Z,21.05
2022-12-14T20:32:44.961Z,20.58
2022-12-14T20:35:18.518Z,21.08
2022-12-14T20:37:46.045Z,22.33
2022-12-14T20:40:13.547Z,21.42
2022-12-14T20:42:40.083Z,23.50
2022-12-14T20:45:07.526Z,24.20
2022-12-14T20:47:34.310Z,23.92
2022-12-14T20:50:00.701Z,23.30
2022-12-14T20:52:27.022Z,24.52
2022-12-14T20:54:53.605Z,26.17
2022-12-14T20:57:20.111Z,25.75
2022-12-14T20:59:46.425Z,22.70
2022-12-14T21:02:17.151Z,23.15
2022-12-14T21:04:43.626Z,22.42
2022-12-14T21:07:10.171Z,22.20
2022-12-14T21:09:36.493Z,21.67
2022-12-14T21:12:22.012Z,23.10
2022-12-14T21:14:54.159Z,22.00
2022-12-14T21:17:22.747Z,21.13
2022-12-14T21:19:49.420Z,20.98
2022-12-14T21:22:18.993Z,21.70
2022-12-14T21:25:03.071Z,21.77
2022-12-14T21:27:31.006Z,21.08
2022-12-14T21:29:57.481Z,21.98
2022-12-14T21:32:24.116Z,21.38
2022-12-14T21:34:50.755Z,21.42
2022-12-14T21:37:17.716Z,19.77
2022-12-14T21:39:51.830Z,19.30
2022-12-14T21:42:20.749Z,19.10
2022-12-14T21:44:49.357Z,18.23
2022-12-14T21:47:17.019Z,18.55
2022-12-14T21:49:45.162Z,18.25
2022-12-14T21:52:14.423Z,18.38
2022-12-14T21:54:41.335Z,19.15
2022-12-14T21:57:26.514Z,20.13
2022-12-14T21:59:52.814Z,18.90
2022-12-14T22:02:22.834Z,18.23
2022-12-14T22:04:50.059Z,17.75
2022-12-14T22:07:18.253Z,17.90
2022-12-14T22:09:49.735Z,20.35
2022-12-14T22:12:17.728Z,19.83
2022-12-14T22:14:44.104Z,20.38
2022-12-14T22:17:13.096Z,19.50
2022-12-14T22:19:39.489Z,17.98
2022-12-14T22:22:06.129Z,16.70
2022-12-14T22:24:32.767Z,18.20
2022-12-14T22:26:59.396Z,20.25
2022-12-14T22:29:25.891Z,17.40
2022-12-14T22:31:52.569Z,18.30
2022-12-14T22:34:21.442Z,21.48
2022-12-14T22:36:49.474Z,21.23
2022-12-14T22:39:17.430Z,19.80
2022-12-14T22:41:44.083Z,18.75
2022-12-14T22:44:12.577Z,19.38
2022-12-14T22:46:40.119Z,19.75
2022-12-14T22:49:06.953Z,18.83
2022-12-14T22:51:33.306Z,18.13
2022-12-14T22:53:59.713Z,18.13
2022-12-14T22:56:46.297Z,19.05
2022-12-14T22:59:17.779Z,20.55
2022-12-14T23:01:49.725Z,20.17
2022-12-14T23:04:17.351Z,22.63
2022-12-14T23:06:43.801Z,19.50
2022-12-14T23:09:28.710Z,20.35
2022-12-14T23:12:15.065Z,20.15
2022-12-14T23:15:03.407Z,19.23
2022-12-14T23:17:48.924Z,18.67
2022-12-14T23:20:34.145Z,19.23
2022-12-14T23:23:18.838Z,19.23
2022-12-14T23:26:03.626Z,14.37
2022-12-14T23:28:51.078Z,18.33
2022-12-14T23:31:35.925Z,17.88
2022-12-14T23:34:20.682Z,18.13
2022-12-14T23:37:05.303Z,19.95
2022-12-14T23:39:50.084Z,21.02
2022-12-14T23:42:34.951Z,18.53
2022-12-14T23:45:19.735Z,18.23
2022-12-14T23:48:04.426Z,18.10
2022-12-14T23:50:49.314Z,17.30
2022-12-14T23:53:34.294Z,17.90
2022-12-14T23:56:19.468Z,17.38
2022-12-14T23:59:04.902Z,17.52
